sensor_id;sensor_type;location;lat;lon;timestamp;temperature;humidity
28614;DHT22;15806;53.548;9.964;2024-01-30T00:00:30;5.80;99.90
28614;DHT22;15806;53.548;9.964;2024-01-30T00:02:11;5.80;99.90
28614;DHT22;15806;53.548;9.964;2024-01-30T00:03:52;5.80;99.90
28614;DHT22;15806;53.548;9.964;2024-01-30T00:05:32;5.80;99.90
28614;DHT22;15806;53.548;9.964;2024-01-30T00:07:14;5.70;99.90
28614;DHT22;15806;53.548;9.964;2024-01-30T00:08:54;5.70;1.00
28614;DHT22;15806;53.548;9.964;2024-01-30T00:10:35;5.70;1.00
28614;DHT22;15806;53.548;9.964;2024-01-30T00:12:16;5.70;1.00
28614;DHT22;15806;53.548;9.964;2024-01-30T00:13:56;5.70;1.00
28614;DHT22;15806;53.548;9.964;2024-01-30T00:15:37;5.70;1.00
28614;DHT22;15806;53.548;9.964;2024-01-30T00:17:17;5.70;1.00
28614;DHT22;15806;53.548;9.964;2024-01-30T00:18:58;5.70;1.00
28614;DHT22;15806;53.548;9.964;2024-01-30T00:20:38;5.70;1.00
28614;DHT22;15806;53.548;9.964;2024-01-30T00:22:19;5.70;1.00
28614;DHT22;15806;53.548;9.964;2024-01-30T00:23:59;5.70;1.00
28614;DHT22;15806;53.548;9.964;2024-01-30T00:25:40;5.70;1.00
28614;DHT22;15806;53.548;9.964;2024-01-30T00:27:22;5.70;12.10
28614;DHT22;15806;53.548;9.964;2024-01-30T00:29:02;5.70;93.80
28614;DHT22;15806;53.548;9.964;2024-01-30T00:30:43;5.70;99.90
28614;DHT22;15806;53.548;9.964;2024-01-30T00:32:23;5.80;99.90
28614;DHT22;15806;53.548;9.964;2024-01-30T00:34:04;5.70;99.90
28614;DHT22;15806;53.548;9.964;2024-01-30T00:35:44;5.70;99.90
28614;DHT22;15806;53.548;9.964;2024-01-30T00:37:25;5.70;99.90
28614;DHT22;15806;53.548;9.964;2024-01-30T00:39:05;5.70;99.90
28614;DHT22;15806;53.548;9.964;2024-01-30T00:40:46;5.70;99.90
28614;DHT22;15806;53.548;9.964;2024-01-30T00:42:26;5.70;99.90
28614;DHT22;15806;53.548;9.964;2024-01-30T00:44:07;5.60;99.90
28614;DHT22;15806;53.548;9.964;2024-01-30T00:45:47;5.60;99.90
28614;DHT22;15806;53.548;9.964;2024-01-30T00:47:29;5.60;99.90
28614;DHT22;15806;53.548;9.964;2024-01-30T00:49:10;5.60;99.90
28614;DHT22;15806;53.548;9.964;2024-01-30T00:50:50;5.60;99.90
28614;DHT22;15806;53.548;9.964;2024-01-30T00:52:31;5.60;99.90
28614;DHT22;15806;53.548;9.964;2024-01-30T00:54:11;5.60;99.90
28614;DHT22;15806;53.548;9.964;2024-01-30T00:55:52;5.60;99.90
28614;DHT22;15806;53.548;9.964;2024-01-30T00:57:32;5.60;99.90
28614;DHT22;15806;53.548;9.964;2024-01-30T00:59:13;5.60;99.90
28614;DHT22;15806;53.548;9.964;2024-01-30T01:00:53;5.60;99.90
28614;DHT22;15806;53.548;9.964;2024-01-30T01:02:34;5.50;1.00
28614;DHT22;15806;53.548;9.964;2024-01-30T01:04:15;5.50;1.00
28614;DHT22;15806;53.548;9.964;2024-01-30T01:05:57;5.50;1.00
28614;DHT22;15806;53.548;9.964;2024-01-30T01:07:38;5.50;1.00
28614;DHT22;15806;53.548;9.964;2024-01-30T01:09:18;5.50;1.00
28614;DHT22;15806;53.548;9.964;2024-01-30T01:10:59;5.60;99.90
28614;DHT22;15806;53.548;9.964;2024-01-30T01:12:39;5.60;99.90
28614;DHT22;15806;53.548;9.964;2024-01-30T01:14:20;5.50;99.90
28614;DHT22;15806;53.548;9.964;2024-01-30T01:16:00;5.50;99.90
28614;DHT22;15806;53.548;9.964;2024-01-30T01:17:41;5.50;99.90
28614;DHT22;15806;53.548;9.964;2024-01-30T01:19:22;5.50;99.90
28614;DHT22;15806;53.548;9.964;2024-01-30T01:21:02;5.50;99.90
28614;DHT22;15806;53.548;9.964;2024-01-30T01:22:43;5.50;99.90
28614;DHT22;15806;53.548;9.964;2024-01-30T01:24:23;5.50;99.90
28614;DHT22;15806;53.548;9.964;2024-01-30T01:26:04;5.40;99.90
28614;DHT22;15806;53.548;9.964;2024-01-30T01:27:45;5.40;99.90
28614;DHT22;15806;53.548;9.964;2024-01-30T01:29:25;5.40;99.90
28614;DHT22;15806;53.548;9.964;2024-01-30T01:31:06;5.40;99.90
28614;DHT22;15806;53.548;9.964;2024-01-30T01:32:47;5.40;99.90
28614;DHT22;15806;53.548;9.964;2024-01-30T01:34:27;5.40;99.90
28614;DHT22;15806;53.548;9.964;2024-01-30T01:36:08;5.40;99.90
28614;DHT22;15806;53.548;9.964;2024-01-30T01:37:48;5.30;99.90
28614;DHT22;15806;53.548;9.964;2024-01-30T01:39:30;5.30;99.90
28614;DHT22;15806;53.548;9.964;2024-01-30T01:41:11;5.30;99.90
28614;DHT22;15806;53.548;9.964;2024-01-30T01:42:51;5.40;1.00
28614;DHT22;15806;53.548;9.964;2024-01-30T01:44:32;5.40;99.90
28614;DHT22;15806;53.548;9.964;2024-01-30T01:46:13;5.40;99.90
28614;DHT22;15806;53.548;9.964;2024-01-30T01:47:54;5.40;99.90
28614;DHT22;15806;53.548;9.964;2024-01-30T01:49:34;5.30;99.90
28614;DHT22;15806;53.548;9.964;2024-01-30T01:51:15;5.30;99.90
28614;DHT22;15806;53.548;9.964;2024-01-30T01:52:56;5.30;99.90
28614;DHT22;15806;53.548;9.964;2024-01-30T01:54:38;5.30;99.90
28614;DHT22;15806;53.548;9.964;2024-01-30T01:56:18;5.30;1.00
28614;DHT22;15806;53.548;9.964;2024-01-30T01:57:59;5.30;99.90
28614;DHT22;15806;53.548;9.964;2024-01-30T01:59:40;5.30;99.90
28614;DHT22;15806;53.548;9.964;2024-01-30T02:01:21;5.30;99.90
28614;DHT22;15806;53.548;9.964;2024-01-30T02:03:04;5.40;99.90
28614;DHT22;15806;53.548;9.964;2024-01-30T02:04:46;5.40;99.90
28614;DHT22;15806;53.548;9.964;2024-01-30T02:06:27;5.40;99.90
28614;DHT22;15806;53.548;9.964;2024-01-30T02:08:08;5.40;99.90
28614;DHT22;15806;53.548;9.964;2024-01-30T02:09:49;5.40;99.90
28614;DHT22;15806;53.548;9.964;2024-01-30T02:11:29;5.40;99.90
28614;DHT22;15806;53.548;9.964;2024-01-30T02:13:10;5.50;99.90
28614;DHT22;15806;53.548;9.964;2024-01-30T02:14:51;5.50;99.90
28614;DHT22;15806;53.548;9.964;2024-01-30T02:16:32;5.50;21.40
28614;DHT22;15806;53.548;9.964;2024-01-30T02:18:12;5.50;1.00
28614;DHT22;15806;53.548;9.964;2024-01-30T02:19:53;5.50;1.00
28614;DHT22;15806;53.548;9.964;2024-01-30T02:21:33;5.50;1.00
28614;DHT22;15806;53.548;9.964;2024-01-30T02:23:15;5.50;1.00
28614;DHT22;15806;53.548;9.964;2024-01-30T02:24:56;5.50;1.00
28614;DHT22;15806;53.548;9.964;2024-01-30T02:26:37;5.50;1.00
28614;DHT22;15806;53.548;9.964;2024-01-30T02:28:17;5.50;1.00
28614;DHT22;15806;53.548;9.964;2024-01-30T02:29:58;5.50;1.00
28614;DHT22;15806;53.548;9.964;2024-01-30T02:31:38;5.50;1.00
28614;DHT22;15806;53.548;9.964;2024-01-30T02:33:19;5.50;1.00
28614;DHT22;15806;53.548;9.964;2024-01-30T02:34:59;5.50;1.00
28614;DHT22;15806;53.548;9.964;2024-01-30T02:36:43;5.40;1.00
28614;DHT22;15806;53.548;9.964;2024-01-30T02:38:23;5.40;1.00
28614;DHT22;15806;53.548;9.964;2024-01-30T02:40:04;5.40;1.00
28614;DHT22;15806;53.548;9.964;2024-01-30T02:41:46;5.40;1.00
28614;DHT22;15806;53.548;9.964;2024-01-30T02:43:27;5.40;1.00
28614;DHT22;15806;53.548;9.964;2024-01-30T02:45:09;5.40;1.00
28614;DHT22;15806;53.548;9.964;2024-01-30T02:46:50;5.40;1.00
28614;DHT22;15806;53.548;9.964;2024-01-30T02:48:30;5.40;1.00
28614;DHT22;15806;53.548;9.964;2024-01-30T02:50:11;5.30;1.00
28614;DHT22;15806;53.548;9.964;2024-01-30T02:51:53;5.40;23.20
28614;DHT22;15806;53.548;9.964;2024-01-30T02:53:33;5.40;79.40
28614;DHT22;15806;53.548;9.964;2024-01-30T02:55:14;5.40;99.90
28614;DHT22;15806;53.548;9.964;2024-01-30T02:56:54;5.40;95.40
28614;DHT22;15806;53.548;9.964;2024-01-30T02:58:38;5.40;41.90
28614;DHT22;15806;53.548;9.964;2024-01-30T03:00:20;5.40;48.60
28614;DHT22;15806;53.548;9.964;2024-01-30T03:02:00;5.50;52.60
28614;DHT22;15806;53.548;9.964;2024-01-30T03:03:41;5.50;1.80
28614;DHT22;15806;53.548;9.964;2024-01-30T03:05:21;5.50;1.00
28614;DHT22;15806;53.548;9.964;2024-01-30T03:07:02;5.50;1.00
28614;DHT22;15806;53.548;9.964;2024-01-30T03:08:42;5.50;1.00
28614;DHT22;15806;53.548;9.964;2024-01-30T03:10:23;5.50;1.00
28614;DHT22;15806;53.548;9.964;2024-01-30T03:12:04;5.60;1.00
28614;DHT22;15806;53.548;9.964;2024-01-30T03:13:45;5.50;1.00
28614;DHT22;15806;53.548;9.964;2024-01-30T03:15:25;5.50;1.00
28614;DHT22;15806;53.548;9.964;2024-01-30T03:17:06;5.50;1.00
28614;DHT22;15806;53.548;9.964;2024-01-30T03:18:46;5.50;1.00
28614;DHT22;15806;53.548;9.964;2024-01-30T03:20:27;5.50;1.00
28614;DHT22;15806;53.548;9.964;2024-01-30T03:22:07;5.50;38.10
28614;DHT22;15806;53.548;9.964;2024-01-30T03:23:49;5.50;99.90
28614;DHT22;15806;53.548;9.964;2024-01-30T03:25:30;5.50;99.90
28614;DHT22;15806;53.548;9.964;2024-01-30T03:27:10;5.50;99.90
28614;DHT22;15806;53.548;9.964;2024-01-30T03:28:51;5.40;99.90
28614;DHT22;15806;53.548;9.964;2024-01-30T03:30:31;5.40;99.90
28614;DHT22;15806;53.548;9.964;2024-01-30T03:32:12;5.40;99.90
28614;DHT22;15806;53.548;9.964;2024-01-30T03:33:52;5.40;99.90
28614;DHT22;15806;53.548;9.964;2024-01-30T03:35:33;5.30;1.00
28614;DHT22;15806;53.548;9.964;2024-01-30T03:37:13;5.30;1.00
28614;DHT22;15806;53.548;9.964;2024-01-30T03:38:54;5.30;1.00
28614;DHT22;15806;53.548;9.964;2024-01-30T03:40:34;5.20;1.00
28614;DHT22;15806;53.548;9.964;2024-01-30T03:42:15;5.20;59.70
28614;DHT22;15806;53.548;9.964;2024-01-30T03:43:55;5.20;40.60
28614;DHT22;15806;53.548;9.964;2024-01-30T03:45:36;5.20;95.70
28614;DHT22;15806;53.548;9.964;2024-01-30T03:47:16;5.20;99.90
28614;DHT22;15806;53.548;9.964;2024-01-30T03:48:57;5.20;99.90
28614;DHT22;15806;53.548;9.964;2024-01-30T03:50:37;5.10;99.90
28614;DHT22;15806;53.548;9.964;2024-01-30T03:52:19;5.10;99.90
28614;DHT22;15806;53.548;9.964;2024-01-30T03:53:59;5.10;99.90
28614;DHT22;15806;53.548;9.964;2024-01-30T03:55:40;5.10;1.00
28614;DHT22;15806;53.548;9.964;2024-01-30T03:57:21;5.00;1.00
28614;DHT22;15806;53.548;9.964;2024-01-30T03:59:01;5.10;99.90
28614;DHT22;15806;53.548;9.964;2024-01-30T04:00:41;5.10;99.90
28614;DHT22;15806;53.548;9.964;2024-01-30T04:02:22;5.10;1.00
28614;DHT22;15806;53.548;9.964;2024-01-30T04:04:03;5.10;1.00
28614;DHT22;15806;53.548;9.964;2024-01-30T04:05:43;5.10;1.00
28614;DHT22;15806;53.548;9.964;2024-01-30T04:07:24;5.10;1.00
28614;DHT22;15806;53.548;9.964;2024-01-30T04:09:04;5.10;26.60
28614;DHT22;15806;53.548;9.964;2024-01-30T04:10:45;5.10;99.90
28614;DHT22;15806;53.548;9.964;2024-01-30T04:12:26;5.00;99.90
28614;DHT22;15806;53.548;9.964;2024-01-30T04:14:06;5.00;1.00
28614;DHT22;15806;53.548;9.964;2024-01-30T04:15:47;5.00;1.00
28614;DHT22;15806;53.548;9.964;2024-01-30T04:17:27;5.00;8.70
28614;DHT22;15806;53.548;9.964;2024-01-30T04:19:08;5.10;99.90
28614;DHT22;15806;53.548;9.964;2024-01-30T04:20:48;5.10;99.90
28614;DHT22;15806;53.548;9.964;2024-01-30T04:22:29;5.10;99.90
28614;DHT22;15806;53.548;9.964;2024-01-30T04:24:09;5.10;1.00
28614;DHT22;15806;53.548;9.964;2024-01-30T04:25:50;5.10;1.00
28614;DHT22;15806;53.548;9.964;2024-01-30T04:27:30;5.10;1.00
28614;DHT22;15806;53.548;9.964;2024-01-30T04:29:11;5.10;1.00
28614;DHT22;15806;53.548;9.964;2024-01-30T04:30:51;5.10;99.90
28614;DHT22;15806;53.548;9.964;2024-01-30T04:32:32;5.10;99.90
28614;DHT22;15806;53.548;9.964;2024-01-30T04:34:13;5.10;99.90
28614;DHT22;15806;53.548;9.964;2024-01-30T04:35:53;5.20;99.90
28614;DHT22;15806;53.548;9.964;2024-01-30T04:37:34;5.10;99.90
28614;DHT22;15806;53.548;9.964;2024-01-30T04:39:14;5.10;99.90
28614;DHT22;15806;53.548;9.964;2024-01-30T04:40:55;5.10;99.90
28614;DHT22;15806;53.548;9.964;2024-01-30T04:42:35;5.10;99.90
28614;DHT22;15806;53.548;9.964;2024-01-30T04:44:16;5.10;99.90
28614;DHT22;15806;53.548;9.964;2024-01-30T04:45:56;5.10;99.90
28614;DHT22;15806;53.548;9.964;2024-01-30T04:47:37;5.00;99.90
28614;DHT22;15806;53.548;9.964;2024-01-30T04:49:17;5.00;99.90
28614;DHT22;15806;53.548;9.964;2024-01-30T04:50:58;5.00;99.90
28614;DHT22;15806;53.548;9.964;2024-01-30T04:52:38;5.00;99.90
28614;DHT22;15806;53.548;9.964;2024-01-30T04:54:19;5.00;99.90
28614;DHT22;15806;53.548;9.964;2024-01-30T04:55:59;5.10;99.90
28614;DHT22;15806;53.548;9.964;2024-01-30T04:57:40;5.00;99.90
28614;DHT22;15806;53.548;9.964;2024-01-30T04:59:21;5.10;99.90
28614;DHT22;15806;53.548;9.964;2024-01-30T05:01:02;5.10;99.90
28614;DHT22;15806;53.548;9.964;2024-01-30T05:02:43;5.10;99.90
28614;DHT22;15806;53.548;9.964;2024-01-30T05:04:24;5.10;99.90
28614;DHT22;15806;53.548;9.964;2024-01-30T05:06:05;5.10;99.90
28614;DHT22;15806;53.548;9.964;2024-01-30T05:07:45;5.10;99.90
28614;DHT22;15806;53.548;9.964;2024-01-30T05:09:26;5.00;99.90
28614;DHT22;15806;53.548;9.964;2024-01-30T05:11:06;5.00;99.90
28614;DHT22;15806;53.548;9.964;2024-01-30T05:12:47;5.00;99.90
28614;DHT22;15806;53.548;9.964;2024-01-30T05:14:27;5.00;99.90
28614;DHT22;15806;53.548;9.964;2024-01-30T05:16:08;5.10;99.90
28614;DHT22;15806;53.548;9.964;2024-01-30T05:17:48;5.20;99.90
28614;DHT22;15806;53.548;9.964;2024-01-30T05:19:29;5.20;99.90
28614;DHT22;15806;53.548;9.964;2024-01-30T05:21:10;5.20;99.90
28614;DHT22;15806;53.548;9.964;2024-01-30T05:22:51;5.20;99.90
28614;DHT22;15806;53.548;9.964;2024-01-30T05:24:31;5.20;99.90
28614;DHT22;15806;53.548;9.964;2024-01-30T05:26:12;5.20;99.90
28614;DHT22;15806;53.548;9.964;2024-01-30T05:27:52;5.20;99.90
28614;DHT22;15806;53.548;9.964;2024-01-30T05:29:33;5.30;99.90
28614;DHT22;15806;53.548;9.964;2024-01-30T05:31:13;5.30;99.90
28614;DHT22;15806;53.548;9.964;2024-01-30T05:32:55;5.20;99.90
28614;DHT22;15806;53.548;9.964;2024-01-30T05:34:36;5.20;99.90
28614;DHT22;15806;53.548;9.964;2024-01-30T05:36:16;5.20;99.90
28614;DHT22;15806;53.548;9.964;2024-01-30T05:37:57;5.20;99.90
28614;DHT22;15806;53.548;9.964;2024-01-30T05:39:37;5.30;99.90
28614;DHT22;15806;53.548;9.964;2024-01-30T05:41:18;5.30;99.90
28614;DHT22;15806;53.548;9.964;2024-01-30T05:42:59;5.20;99.90
28614;DHT22;15806;53.548;9.964;2024-01-30T05:44:39;5.20;99.90
28614;DHT22;15806;53.548;9.964;2024-01-30T05:46:19;5.30;99.90
28614;DHT22;15806;53.548;9.964;2024-01-30T05:48:00;5.30;99.90
28614;DHT22;15806;53.548;9.964;2024-01-30T05:49:41;5.20;99.90
28614;DHT22;15806;53.548;9.964;2024-01-30T05:51:21;5.20;99.90
28614;DHT22;15806;53.548;9.964;2024-01-30T05:53:02;5.30;99.90
28614;DHT22;15806;53.548;9.964;2024-01-30T05:54:43;5.20;99.90
28614;DHT22;15806;53.548;9.964;2024-01-30T05:56:23;5.30;99.90
28614;DHT22;15806;53.548;9.964;2024-01-30T05:58:04;5.30;99.90
28614;DHT22;15806;53.548;9.964;2024-01-30T05:59:44;5.30;99.90
28614;DHT22;15806;53.548;9.964;2024-01-30T06:01:25;5.30;99.90
28614;DHT22;15806;53.548;9.964;2024-01-30T06:03:05;5.20;99.90
28614;DHT22;15806;53.548;9.964;2024-01-30T06:04:46;5.20;99.90
28614;DHT22;15806;53.548;9.964;2024-01-30T06:06:26;5.20;99.90
28614;DHT22;15806;53.548;9.964;2024-01-30T06:08:07;5.30;99.90
28614;DHT22;15806;53.548;9.964;2024-01-30T06:09:48;5.20;99.90
28614;DHT22;15806;53.548;9.964;2024-01-30T06:11:28;5.20;99.90
28614;DHT22;15806;53.548;9.964;2024-01-30T06:13:09;5.20;99.90
28614;DHT22;15806;53.548;9.964;2024-01-30T06:14:49;5.20;99.90
28614;DHT22;15806;53.548;9.964;2024-01-30T06:16:31;5.20;99.90
28614;DHT22;15806;53.548;9.964;2024-01-30T06:18:11;5.30;99.90
28614;DHT22;15806;53.548;9.964;2024-01-30T06:19:52;5.30;99.90
28614;DHT22;15806;53.548;9.964;2024-01-30T06:21:32;5.30;99.90
28614;DHT22;15806;53.548;9.964;2024-01-30T06:23:13;5.30;99.90
28614;DHT22;15806;53.548;9.964;2024-01-30T06:24:53;5.30;99.90
28614;DHT22;15806;53.548;9.964;2024-01-30T06:26:34;5.30;99.90
28614;DHT22;15806;53.548;9.964;2024-01-30T06:28:14;5.30;99.90
28614;DHT22;15806;53.548;9.964;2024-01-30T06:29:55;5.20;99.90
28614;DHT22;15806;53.548;9.964;2024-01-30T06:31:42;5.20;99.90
28614;DHT22;15806;53.548;9.964;2024-01-30T06:33:22;5.20;99.90
28614;DHT22;15806;53.548;9.964;2024-01-30T06:35:03;5.30;99.90
28614;DHT22;15806;53.548;9.964;2024-01-30T06:36:44;5.20;99.90
28614;DHT22;15806;53.548;9.964;2024-01-30T06:38:24;5.20;99.90
28614;DHT22;15806;53.548;9.964;2024-01-30T06:40:06;5.30;99.90
28614;DHT22;15806;53.548;9.964;2024-01-30T06:41:46;5.20;99.90
28614;DHT22;15806;53.548;9.964;2024-01-30T06:43:27;5.30;99.90
28614;DHT22;15806;53.548;9.964;2024-01-30T06:45:07;5.40;99.90
28614;DHT22;15806;53.548;9.964;2024-01-30T06:46:48;5.30;99.90
28614;DHT22;15806;53.548;9.964;2024-01-30T06:48:29;5.30;99.90
28614;DHT22;15806;53.548;9.964;2024-01-30T06:50:09;5.30;99.90
28614;DHT22;15806;53.548;9.964;2024-01-30T06:51:50;5.30;99.90
28614;DHT22;15806;53.548;9.964;2024-01-30T06:53:30;5.30;99.90
28614;DHT22;15806;53.548;9.964;2024-01-30T06:55:11;5.30;99.90
28614;DHT22;15806;53.548;9.964;2024-01-30T06:56:51;5.30;99.90
28614;DHT22;15806;53.548;9.964;2024-01-30T06:58:32;5.20;99.90
28614;DHT22;15806;53.548;9.964;2024-01-30T07:00:13;5.20;99.90
28614;DHT22;15806;53.548;9.964;2024-01-30T07:01:53;5.20;99.90
28614;DHT22;15806;53.548;9.964;2024-01-30T07:03:34;5.30;99.90
28614;DHT22;15806;53.548;9.964;2024-01-30T07:05:14;5.40;99.90
28614;DHT22;15806;53.548;9.964;2024-01-30T07:06:55;5.30;99.90
28614;DHT22;15806;53.548;9.964;2024-01-30T07:08:36;5.40;99.90
28614;DHT22;15806;53.548;9.964;2024-01-30T07:10:16;5.50;99.90
28614;DHT22;15806;53.548;9.964;2024-01-30T07:11:57;5.40;99.90
28614;DHT22;15806;53.548;9.964;2024-01-30T07:13:37;5.40;99.90
28614;DHT22;15806;53.548;9.964;2024-01-30T07:15:18;5.50;99.90
28614;DHT22;15806;53.548;9.964;2024-01-30T07:17:00;5.50;99.90
28614;DHT22;15806;53.548;9.964;2024-01-30T07:18:40;5.60;99.90
28614;DHT22;15806;53.548;9.964;2024-01-30T07:20:21;5.60;99.90
28614;DHT22;15806;53.548;9.964;2024-01-30T07:22:01;5.50;99.90
28614;DHT22;15806;53.548;9.964;2024-01-30T07:23:42;5.50;99.90
28614;DHT22;15806;53.548;9.964;2024-01-30T07:25:23;5.60;99.90
28614;DHT22;15806;53.548;9.964;2024-01-30T07:27:03;5.50;99.90
28614;DHT22;15806;53.548;9.964;2024-01-30T07:28:44;5.60;99.90
28614;DHT22;15806;53.548;9.964;2024-01-30T07:30:24;5.70;99.90
28614;DHT22;15806;53.548;9.964;2024-01-30T07:32:05;5.70;99.90
28614;DHT22;15806;53.548;9.964;2024-01-30T07:33:46;5.80;99.90
28614;DHT22;15806;53.548;9.964;2024-01-30T07:35:26;5.70;99.90
28614;DHT22;15806;53.548;9.964;2024-01-30T07:37:07;5.60;99.90
28614;DHT22;15806;53.548;9.964;2024-01-30T07:38:47;5.60;99.90
28614;DHT22;15806;53.548;9.964;2024-01-30T07:40:29;5.60;99.90
28614;DHT22;15806;53.548;9.964;2024-01-30T07:42:10;5.50;99.90
28614;DHT22;15806;53.548;9.964;2024-01-30T07:43:50;5.50;99.90
28614;DHT22;15806;53.548;9.964;2024-01-30T07:45:31;5.60;99.90
28614;DHT22;15806;53.548;9.964;2024-01-30T07:47:11;5.60;99.90
28614;DHT22;15806;53.548;9.964;2024-01-30T07:48:52;5.60;99.90
28614;DHT22;15806;53.548;9.964;2024-01-30T07:50:32;5.70;99.90
28614;DHT22;15806;53.548;9.964;2024-01-30T07:52:13;5.70;99.90
28614;DHT22;15806;53.548;9.964;2024-01-30T07:53:54;5.70;99.90
28614;DHT22;15806;53.548;9.964;2024-01-30T07:56:13;5.70;99.90
28614;DHT22;15806;53.548;9.964;2024-01-30T07:57:54;5.80;99.90
28614;DHT22;15806;53.548;9.964;2024-01-30T07:59:36;5.80;99.90
28614;DHT22;15806;53.548;9.964;2024-01-30T08:01:17;5.90;99.90
28614;DHT22;15806;53.548;9.964;2024-01-30T08:02:57;5.90;99.90
28614;DHT22;15806;53.548;9.964;2024-01-30T08:04:38;5.90;99.90
28614;DHT22;15806;53.548;9.964;2024-01-30T08:06:18;6.00;99.90
28614;DHT22;15806;53.548;9.964;2024-01-30T08:07:59;6.10;99.90
28614;DHT22;15806;53.548;9.964;2024-01-30T08:09:39;6.10;99.90
28614;DHT22;15806;53.548;9.964;2024-01-30T08:11:20;6.10;99.90
28614;DHT22;15806;53.548;9.964;2024-01-30T08:13:01;6.10;99.90
28614;DHT22;15806;53.548;9.964;2024-01-30T08:14:42;6.10;99.90
28614;DHT22;15806;53.548;9.964;2024-01-30T08:16:22;6.10;99.90
28614;DHT22;15806;53.548;9.964;2024-01-30T08:18:03;6.10;99.90
28614;DHT22;15806;53.548;9.964;2024-01-30T08:19:43;6.20;99.90
28614;DHT22;15806;53.548;9.964;2024-01-30T08:21:24;6.10;99.90
28614;DHT22;15806;53.548;9.964;2024-01-30T08:23:04;6.20;99.90
28614;DHT22;15806;53.548;9.964;2024-01-30T08:24:45;6.30;99.90
28614;DHT22;15806;53.548;9.964;2024-01-30T08:26:25;6.30;99.90
28614;DHT22;15806;53.548;9.964;2024-01-30T08:28:08;6.20;99.90
28614;DHT22;15806;53.548;9.964;2024-01-30T08:29:49;6.30;99.90
28614;DHT22;15806;53.548;9.964;2024-01-30T08:31:29;6.30;99.90
28614;DHT22;15806;53.548;9.964;2024-01-30T08:33:10;6.30;99.90
28614;DHT22;15806;53.548;9.964;2024-01-30T08:34:50;6.30;99.90
28614;DHT22;15806;53.548;9.964;2024-01-30T08:36:31;6.30;99.90
28614;DHT22;15806;53.548;9.964;2024-01-30T08:38:11;6.30;99.90
28614;DHT22;15806;53.548;9.964;2024-01-30T08:39:52;6.40;99.90
28614;DHT22;15806;53.548;9.964;2024-01-30T08:41:33;6.30;99.90
28614;DHT22;15806;53.548;9.964;2024-01-30T08:43:13;6.30;99.90
28614;DHT22;15806;53.548;9.964;2024-01-30T08:44:54;6.40;99.90
28614;DHT22;15806;53.548;9.964;2024-01-30T08:46:34;6.40;99.90
28614;DHT22;15806;53.548;9.964;2024-01-30T08:48:15;6.30;99.90
28614;DHT22;15806;53.548;9.964;2024-01-30T08:49:55;6.30;99.90
28614;DHT22;15806;53.548;9.964;2024-01-30T08:51:36;6.30;99.90
28614;DHT22;15806;53.548;9.964;2024-01-30T08:53:16;6.30;99.90
28614;DHT22;15806;53.548;9.964;2024-01-30T08:54:57;6.40;99.90
28614;DHT22;15806;53.548;9.964;2024-01-30T08:56:37;6.40;99.90
28614;DHT22;15806;53.548;9.964;2024-01-30T08:58:18;6.40;99.90
28614;DHT22;15806;53.548;9.964;2024-01-30T08:59:58;6.30;99.90
28614;DHT22;15806;53.548;9.964;2024-01-30T09:01:39;6.30;99.90
28614;DHT22;15806;53.548;9.964;2024-01-30T09:03:19;6.30;99.90
28614;DHT22;15806;53.548;9.964;2024-01-30T09:05:00;6.40;99.90
28614;DHT22;15806;53.548;9.964;2024-01-30T09:06:40;6.30;99.90
28614;DHT22;15806;53.548;9.964;2024-01-30T09:08:21;6.30;99.90
28614;DHT22;15806;53.548;9.964;2024-01-30T09:10:01;6.40;99.90
28614;DHT22;15806;53.548;9.964;2024-01-30T09:11:42;6.40;99.90
28614;DHT22;15806;53.548;9.964;2024-01-30T09:13:23;6.50;99.90
28614;DHT22;15806;53.548;9.964;2024-01-30T09:15:03;6.50;99.90
28614;DHT22;15806;53.548;9.964;2024-01-30T09:16:44;6.60;99.90
28614;DHT22;15806;53.548;9.964;2024-01-30T09:18:25;6.60;99.90
28614;DHT22;15806;53.548;9.964;2024-01-30T09:20:06;6.60;99.90
28614;DHT22;15806;53.548;9.964;2024-01-30T09:21:46;6.60;99.90
28614;DHT22;15806;53.548;9.964;2024-01-30T09:23:27;6.50;99.90
28614;DHT22;15806;53.548;9.964;2024-01-30T09:25:08;6.60;99.90
28614;DHT22;15806;53.548;9.964;2024-01-30T09:26:48;6.60;99.90
28614;DHT22;15806;53.548;9.964;2024-01-30T09:28:29;6.60;99.90
28614;DHT22;15806;53.548;9.964;2024-01-30T09:30:10;6.60;99.90
28614;DHT22;15806;53.548;9.964;2024-01-30T09:31:50;6.60;99.90
28614;DHT22;15806;53.548;9.964;2024-01-30T09:33:31;6.60;99.90
28614;DHT22;15806;53.548;9.964;2024-01-30T09:35:11;6.60;99.90
28614;DHT22;15806;53.548;9.964;2024-01-30T09:36:52;6.60;99.90
28614;DHT22;15806;53.548;9.964;2024-01-30T09:38:32;6.70;99.90
28614;DHT22;15806;53.548;9.964;2024-01-30T09:40:13;6.70;99.90
28614;DHT22;15806;53.548;9.964;2024-01-30T09:43:54;6.70;99.90
28614;DHT22;15806;53.548;9.964;2024-01-30T09:45:37;6.80;99.90
28614;DHT22;15806;53.548;9.964;2024-01-30T09:47:18;6.80;99.90
28614;DHT22;15806;53.548;9.964;2024-01-30T09:48:59;6.80;99.90
28614;DHT22;15806;53.548;9.964;2024-01-30T09:50:40;6.90;99.90
28614;DHT22;15806;53.548;9.964;2024-01-30T09:52:20;6.90;99.90
28614;DHT22;15806;53.548;9.964;2024-01-30T09:54:02;6.90;99.90
28614;DHT22;15806;53.548;9.964;2024-01-30T09:55:45;7.00;99.90
28614;DHT22;15806;53.548;9.964;2024-01-30T09:57:27;7.00;99.90
28614;DHT22;15806;53.548;9.964;2024-01-30T09:59:08;7.00;99.90
28614;DHT22;15806;53.548;9.964;2024-01-30T10:00:49;7.00;99.90
28614;DHT22;15806;53.548;9.964;2024-01-30T10:02:31;6.90;99.90
28614;DHT22;15806;53.548;9.964;2024-01-30T10:04:12;7.00;99.90
28614;DHT22;15806;53.548;9.964;2024-01-30T10:05:53;6.90;99.90
28614;DHT22;15806;53.548;9.964;2024-01-30T10:07:35;7.00;99.90
28614;DHT22;15806;53.548;9.964;2024-01-30T10:09:16;7.00;99.90
28614;DHT22;15806;53.548;9.964;2024-01-30T10:10:57;7.00;99.90
28614;DHT22;15806;53.548;9.964;2024-01-30T10:12:39;7.00;99.90
28614;DHT22;15806;53.548;9.964;2024-01-30T10:14:20;7.00;99.90
28614;DHT22;15806;53.548;9.964;2024-01-30T10:16:01;7.00;99.90
28614;DHT22;15806;53.548;9.964;2024-01-30T10:17:41;7.10;99.90
28614;DHT22;15806;53.548;9.964;2024-01-30T10:19:22;7.10;99.90
28614;DHT22;15806;53.548;9.964;2024-01-30T10:21:02;7.20;99.90
28614;DHT22;15806;53.548;9.964;2024-01-30T10:22:43;7.20;99.90
28614;DHT22;15806;53.548;9.964;2024-01-30T10:24:25;7.30;99.90
28614;DHT22;15806;53.548;9.964;2024-01-30T10:26:07;7.30;99.90
28614;DHT22;15806;53.548;9.964;2024-01-30T10:27:55;7.30;99.90
28614;DHT22;15806;53.548;9.964;2024-01-30T10:29:37;7.30;99.90
28614;DHT22;15806;53.548;9.964;2024-01-30T10:31:18;7.40;99.90
28614;DHT22;15806;53.548;9.964;2024-01-30T10:32:58;7.40;99.90
28614;DHT22;15806;53.548;9.964;2024-01-30T10:34:39;7.40;99.90
28614;DHT22;15806;53.548;9.964;2024-01-30T10:36:28;7.50;99.90
28614;DHT22;15806;53.548;9.964;2024-01-30T10:38:12;7.50;99.90
28614;DHT22;15806;53.548;9.964;2024-01-30T10:39:56;7.60;99.90
28614;DHT22;15806;53.548;9.964;2024-01-30T10:41:44;7.60;99.90
28614;DHT22;15806;53.548;9.964;2024-01-30T10:43:33;7.70;99.90
28614;DHT22;15806;53.548;9.964;2024-01-30T10:45:15;7.70;99.90
28614;DHT22;15806;53.548;9.964;2024-01-30T10:47:00;7.80;99.90
28614;DHT22;15806;53.548;9.964;2024-01-30T10:48:44;7.90;99.90
28614;DHT22;15806;53.548;9.964;2024-01-30T10:50:27;7.90;99.90
28614;DHT22;15806;53.548;9.964;2024-01-30T10:52:10;8.00;99.90